Time;durP1;ratioP1;P1;durP2;ratioP2;P2;SDS_P1;SDS_P2;PMS_P1;PMS_P2;Temp;Humidity;BMP_temperature;BMP_pressure;BME280_temperature;BME280_humidity;BME280_pressure;Samples;Min_cycle;Max_cycle;Signal;HPM_P1;HPM_P2
2022/04/15 00:00:05;;;;;;;24.83;22.80;;;;;;;;;;5116958;28;20433;-91
2022/04/15 00:02:33;;;;;;;26.00;23.80;;;;;;;;;;5116315;28;20472;-91
2022/04/15 00:05:00;;;;;;;24.93;23.33;;;;;;;;;;5116784;28;20410;-90
2022/04/15 00:07:27;;;;;;;25.73;23.60;;;;;;;;;;5116651;28;20437;-88
2022/04/15 00:09:55;;;;;;;25.20;23.40;;;;;;;;;;5116929;28;20754;-91
2022/04/15 00:12:29;;;;;;;26.40;24.50;;;;;;;;;;5116550;28;20436;-91
2022/04/15 00:14:56;;;;;;;26.07;24.37;;;;;;;;;;5116017;28;20439;-91
2022/04/15 00:17:24;;;;;;;26.10;24.33;;;;;;;;;;5116723;28;20481;-91
2022/04/15 00:19:51;;;;;;;26.00;24.23;;;;;;;;;;5116933;28;20416;-91
2022/04/15 00:22:19;;;;;;;26.00;24.10;;;;;;;;;;5116344;28;20419;-90
2022/04/15 00:24:46;;;;;;;26.93;25.03;;;;;;;;;;5116326;28;20418;-91
2022/04/15 00:27:15;;;;;;;26.97;24.77;;;;;;;;;;5116525;28;20452;-91
2022/04/15 00:29:44;;;;;;;28.43;25.87;;;;;;;;;;5116741;28;20465;-90
2022/04/15 00:32:11;;;;;;;26.23;24.33;;;;;;;;;;5116825;28;20419;-91
2022/04/15 00:34:39;;;;;;;27.63;25.73;;;;;;;;;;5116548;28;20441;-90
2022/04/15 00:37:06;;;;;;;28.10;25.90;;;;;;;;;;5116567;28;20457;-90
2022/04/15 00:39:35;;;;;;;28.23;26.23;;;;;;;;;;5116401;28;20415;-91
2022/04/15 00:42:02;;;;;;;26.80;24.73;;;;;;;;;;5115008;28;20449;-91
2022/04/15 00:44:29;;;;;;;26.47;24.57;;;;;;;;;;5116261;27;20437;-90
2022/04/15 00:46:58;;;;;;;26.97;24.97;;;;;;;;;;5116090;28;20494;-90
2022/04/15 00:49:26;;;;;;;26.93;25.00;;;;;;;;;;5116001;28;20416;-91
2022/04/15 00:51:54;;;;;;;28.00;25.50;;;;;;;;;;5115916;28;20415;-91
2022/04/15 00:54:23;;;;;;;28.17;26.27;;;;;;;;;;5116670;28;20437;-90
2022/04/15 00:56:52;;;;;;;28.00;25.97;;;;;;;;;;5116888;28;20447;-90
2022/04/15 00:59:20;;;;;;;29.07;26.37;;;;;;;;;;5115814;28;20418;-90
2022/04/15 01:01:48;;;;;;;28.97;26.70;;;;;;;;;;5115829;28;20486;-90
2022/04/15 01:04:17;;;;;;;30.40;27.73;;;;;;;;;;5115677;28;20439;-90
2022/04/15 01:06:46;;;;;;;27.80;25.80;;;;;;;;;;5115738;28;20422;-91
2022/04/15 01:09:14;;;;;;;28.67;26.70;;;;;;;;;;5115778;28;20861;-90
2022/04/15 01:11:44;;;;;;;29.20;26.93;;;;;;;;;;5115830;27;20454;-90
2022/04/15 01:14:12;;;;;;;29.50;27.20;;;;;;;;;;5115714;28;20437;-90
2022/04/15 01:16:39;;;;;;;27.50;25.60;;;;;;;;;;5115048;28;20480;-90
2022/04/15 01:19:06;;;;;;;28.00;25.90;;;;;;;;;;5115754;28;20441;-90
2022/04/15 01:21:36;;;;;;;29.77;27.30;;;;;;;;;;5115432;28;20790;-90
2022/04/15 01:24:05;;;;;;;29.00;26.57;;;;;;;;;;5115494;28;20447;-90
2022/04/15 01:26:33;;;;;;;29.80;27.10;;;;;;;;;;5115075;28;20431;-90
2022/04/15 01:29:00;;;;;;;28.87;26.63;;;;;;;;;;5114983;28;20494;-90
2022/04/15 01:31:31;;;;;;;28.67;26.70;;;;;;;;;;5115222;28;20441;-90
2022/04/15 01:33:59;;;;;;;29.47;26.97;;;;;;;;;;5113983;28;20513;-90
2022/04/15 01:36:26;;;;;;;29.13;26.87;;;;;;;;;;5114936;28;20935;-91
2022/04/15 01:38:55;;;;;;;29.20;26.60;;;;;;;;;;5114728;28;20462;-90
2022/04/15 01:41:24;;;;;;;28.90;26.40;;;;;;;;;;5115477;28;20452;-90
2022/04/15 01:43:51;;;;;;;29.23;27.10;;;;;;;;;;5114873;28;20408;-89
2022/04/15 01:46:18;;;;;;;28.93;26.60;;;;;;;;;;5115069;28;20443;-90
2022/04/15 01:48:46;;;;;;;28.53;26.53;;;;;;;;;;5115098;28;20444;-91
2022/04/15 01:51:13;;;;;;;28.30;26.40;;;;;;;;;;5115112;28;20460;-89
2022/04/15 01:53:40;;;;;;;27.57;25.33;;;;;;;;;;5114818;28;20491;-90
2022/04/15 01:56:08;;;;;;;28.63;26.50;;;;;;;;;;5114921;28;20408;-92
2022/04/15 01:58:36;;;;;;;28.07;25.97;;;;;;;;;;5114737;28;20455;-91
2022/04/15 02:01:04;;;;;;;28.67;26.67;;;;;;;;;;5114694;28;20419;-92
2022/04/15 02:03:31;;;;;;;27.80;25.50;;;;;;;;;;5114859;28;20441;-91
2022/04/15 02:05:58;;;;;;;27.63;25.53;;;;;;;;;;5114661;28;20444;-91
2022/04/15 02:08:26;;;;;;;26.37;24.40;;;;;;;;;;5114866;28;20441;-91
2022/04/15 02:10:53;;;;;;;26.40;24.30;;;;;;;;;;5114285;28;20400;-91
2022/04/15 02:13:21;;;;;;;27.00;25.20;;;;;;;;;;5114461;28;20825;-91
2022/04/15 02:15:49;;;;;;;25.83;24.00;;;;;;;;;;5114274;28;20541;-91
2022/04/15 02:18:17;;;;;;;27.03;25.10;;;;;;;;;;5114494;28;20547;-91
2022/04/15 02:20:44;;;;;;;27.87;25.93;;;;;;;;;;5114670;28;20852;-91
2022/04/15 02:23:12;;;;;;;27.07;25.13;;;;;;;;;;5114516;28;20437;-91
2022/04/15 02:25:39;;;;;;;27.23;25.30;;;;;;;;;;5114802;28;20434;-91
2022/04/15 02:28:06;;;;;;;28.10;26.10;;;;;;;;;;5114488;28;20896;-91
2022/04/15 02:30:34;;;;;;;27.10;24.80;;;;;;;;;;5114631;28;20404;-91
2022/04/15 02:33:02;;;;;;;27.20;25.40;;;;;;;;;;5114440;28;20427;-91
2022/04/15 02:35:30;;;;;;;25.97;24.17;;;;;;;;;;5114304;28;20412;-91
2022/04/15 02:37:57;;;;;;;27.20;25.20;;;;;;;;;;5114113;28;20463;-90
2022/04/15 02:40:25;;;;;;;27.47;25.47;;;;;;;;;;5118750;28;20456;-92
2022/04/15 02:42:52;;;;;;;27.13;25.33;;;;;;;;;;5118584;28;20431;-91
2022/04/15 02:45:19;;;;;;;29.20;26.73;;;;;;;;;;5118890;28;20792;-91
2022/04/15 02:47:47;;;;;;;27.50;25.40;;;;;;;;;;5118336;28;20395;-91
2022/04/15 02:50:15;;;;;;;26.50;24.80;;;;;;;;;;5118575;28;20430;-91
2022/04/15 02:52:43;;;;;;;27.43;25.33;;;;;;;;;;5118562;28;20436;-91
2022/04/15 02:55:11;;;;;;;27.73;25.60;;;;;;;;;;5118335;28;20483;-91
2022/04/15 02:57:38;;;;;;;28.43;26.13;;;;;;;;;;5118434;28;20508;-90
2022/04/15 03:00:06;;;;;;;27.90;25.80;;;;;;;;;;5118056;28;20440;-91
2022/04/15 03:02:33;;;;;;;28.20;26.30;;;;;;;;;;5118114;28;20448;-91
2022/04/15 03:05:01;;;;;;;26.37;24.37;;;;;;;;;;5118276;28;20804;-91
2022/04/15 03:07:30;;;;;;;26.70;24.83;;;;;;;;;;5116938;28;20826;-91
2022/04/15 03:09:57;;;;;;;27.47;25.67;;;;;;;;;;5118335;28;20411;-91
2022/04/15 03:12:24;;;;;;;26.87;24.87;;;;;;;;;;5117161;28;20436;-91
2022/04/15 03:14:53;;;;;;;28.57;26.50;;;;;;;;;;5117880;28;20435;-91
2022/04/15 03:17:20;;;;;;;28.63;26.30;;;;;;;;;;5117563;28;20543;-91
2022/04/15 03:19:48;;;;;;;28.30;26.10;;;;;;;;;;5118242;28;20410;-91
2022/04/15 03:22:17;;;;;;;28.73;26.53;;;;;;;;;;5116550;28;20449;-91
2022/04/15 03:24:47;;;;;;;28.13;25.87;;;;;;;;;;5117694;28;20411;-91
2022/04/15 03:27:14;;;;;;;28.40;26.20;;;;;;;;;;5117888;28;20432;-91
2022/04/15 03:29:43;;;;;;;27.83;25.67;;;;;;;;;;5118419;27;20485;-91
2022/04/15 03:32:11;;;;;;;28.70;26.50;;;;;;;;;;5117687;28;20433;-91
2022/04/15 03:34:38;;;;;;;29.63;27.43;;;;;;;;;;5117068;28;20407;-91
2022/04/15 03:37:05;;;;;;;28.90;26.70;;;;;;;;;;5116855;28;20411;-91
2022/04/15 03:39:33;;;;;;;29.07;27.00;;;;;;;;;;5117393;28;21000;-91
2022/04/15 03:42:02;;;;;;;29.37;27.23;;;;;;;;;;5117373;28;20531;-91
2022/04/15 03:44:29;;;;;;;28.77;26.53;;;;;;;;;;5117400;28;20435;-91
2022/04/15 03:46:57;;;;;;;28.13;26.27;;;;;;;;;;5117542;28;20546;-90
2022/04/15 03:49:24;;;;;;;28.60;26.30;;;;;;;;;;5117923;28;20910;-91
2022/04/15 03:51:52;;;;;;;27.80;25.80;;;;;;;;;;5116707;28;20438;-91
2022/04/15 03:54:19;;;;;;;29.17;27.03;;;;;;;;;;5117419;28;20418;-91
2022/04/15 03:56:47;;;;;;;28.23;26.07;;;;;;;;;;5117381;28;20991;-91
2022/04/15 03:59:16;;;;;;;27.70;25.80;;;;;;;;;;5116721;28;20554;-91
2022/04/15 04:01:43;;;;;;;27.50;25.60;;;;;;;;;;5117117;28;20444;-91
2022/04/15 04:04:10;;;;;;;27.77;25.83;;;;;;;;;;5117021;28;20803;-91
2022/04/15 04:06:39;;;;;;;29.20;27.20;;;;;;;;;;5116757;28;20906;-91
2022/04/15 04:09:07;;;;;;;28.00;26.20;;;;;;;;;;5117221;28;20831;-91
2022/04/15 04:11:34;;;;;;;27.37;25.30;;;;;;;;;;5116769;28;20418;-91
2022/04/15 04:14:01;;;;;;;27.73;25.73;;;;;;;;;;5117028;28;20525;-91
2022/04/15 04:16:31;;;;;;;27.70;25.80;;;;;;;;;;5116766;28;20476;-91
2022/04/15 04:18:58;;;;;;;27.13;25.23;;;;;;;;;;5116858;28;20458;-91
2022/04/15 04:21:25;;;;;;;26.40;24.70;;;;;;;;;;5116622;28;20456;-92
2022/04/15 04:23:52;;;;;;;27.93;25.83;;;;;;;;;;5116914;28;20799;-91
2022/04/15 04:26:20;;;;;;;28.17;26.07;;;;;;;;;;5115839;28;20424;-91
2022/04/15 04:28:47;;;;;;;28.35;26.40;;;;;;;;;;5116643;28;20862;-91
2022/04/15 04:31:15;;;;;;;29.30;27.20;;;;;;;;;;5116670;28;20226;-91
2022/04/15 04:33:43;;;;;;;29.57;27.30;;;;;;;;;;5116790;28;20427;-92
2022/04/15 04:36:11;;;;;;;28.73;26.53;;;;;;;;;;5116246;28;20430;-91
2022/04/15 04:38:38;;;;;;;28.57;26.40;;;;;;;;;;5116290;28;20458;-91
2022/04/15 04:41:06;;;;;;;28.93;26.93;;;;;;;;;;5116155;28;20419;-91
2022/04/15 04:43:33;;;;;;;28.63;26.73;;;;;;;;;;5116201;28;20431;-92
2022/04/15 04:46:01;;;;;;;28.47;26.37;;;;;;;;;;5115493;28;20471;-92
2022/04/15 04:48:28;;;;;;;29.00;27.10;;;;;;;;;;5116382;28;20448;-94
2022/04/15 04:50:57;;;;;;;29.33;27.20;;;;;;;;;;5116287;27;20449;-94
2022/04/15 04:53:25;;;;;;;27.53;25.63;;;;;;;;;;5116436;28;20460;-95
2022/04/15 04:55:52;;;;;;;29.07;27.10;;;;;;;;;;5116053;28;20411;-94
2022/04/15 04:58:20;;;;;;;27.93;26.13;;;;;;;;;;5116133;27;20487;-94
2022/04/15 05:00:47;;;;;;;30.17;28.07;;;;;;;;;;5116057;28;20404;-94
2022/04/15 05:03:14;;;;;;;28.70;26.50;;;;;;;;;;5114714;28;20480;-94
2022/04/15 05:05:42;;;;;;;28.80;26.50;;;;;;;;;;5116012;28;20433;-93
2022/04/15 05:08:11;;;;;;;29.60;27.13;;;;;;;;;;5115945;28;20422;-93
2022/04/15 05:10:39;;;;;;;27.70;25.70;;;;;;;;;;5115662;28;20460;-93
2022/04/15 05:13:06;;;;;;;27.77;25.87;;;;;;;;;;5115530;28;20416;-94
2022/04/15 05:15:33;;;;;;;27.33;25.40;;;;;;;;;;5115389;28;20458;-93
2022/04/15 05:18:01;;;;;;;27.03;25.23;;;;;;;;;;5115487;28;20443;-94
2022/04/15 05:20:29;;;;;;;27.73;25.93;;;;;;;;;;5115615;28;20435;-94
2022/04/15 05:22:56;;;;;;;28.57;26.33;;;;;;;;;;5115618;28;20441;-94
2022/04/15 05:25:25;;;;;;;28.20;26.10;;;;;;;;;;5114532;28;20844;-93
2022/04/15 05:27:53;;;;;;;28.00;25.90;;;;;;;;;;5115362;28;20448;-94
2022/04/15 05:30:20;;;;;;;28.47;26.47;;;;;;;;;;5115171;28;20475;-93
2022/04/15 05:32:48;;;;;;;27.87;25.80;;;;;;;;;;5115749;28;20419;-93
2022/04/15 05:35:15;;;;;;;27.10;25.30;;;;;;;;;;5115563;28;20917;-94
2022/04/15 05:37:43;;;;;;;30.90;28.37;;;;;;;;;;5114426;28;20445;-92
2022/04/15 05:40:10;;;;;;;30.20;27.90;;;;;;;;;;5115247;28;20480;-94
2022/04/15 05:42:39;;;;;;;28.97;26.80;;;;;;;;;;5115130;28;20433;-94
2022/04/15 05:45:07;;;;;;;30.60;28.30;;;;;;;;;;5115077;28;21174;-94
2022/04/15 05:47:34;;;;;;;29.13;26.97;;;;;;;;;;5115061;28;20433;-94
2022/04/15 05:50:02;;;;;;;31.30;28.70;;;;;;;;;;5114263;28;20449;-94
2022/04/15 05:52:29;;;;;;;29.53;27.30;;;;;;;;;;5115015;28;20415;-95
2022/04/15 05:54:57;;;;;;;31.57;29.03;;;;;;;;;;5115096;28;20456;-94
2022/04/15 05:57:24;;;;;;;30.73;28.33;;;;;;;;;;5115169;28;20547;-94
2022/04/15 05:59:53;;;;;;;31.87;29.43;;;;;;;;;;5114944;28;20476;-94
2022/04/15 06:02:21;;;;;;;31.87;28.27;;;;;;;;;;5115056;28;20408;-94
2022/04/15 06:04:49;;;;;;;31.23;28.90;;;;;;;;;;5115479;28;20412;-93
2022/04/15 06:07:16;;;;;;;31.23;28.93;;;;;;;;;;5115184;28;20435;-95
2022/04/15 06:09:44;;;;;;;31.00;28.80;;;;;;;;;;5096542;28;20934;-94
2022/04/15 06:12:12;;;;;;;30.23;27.63;;;;;;;;;;5114006;28;20476;-93
2022/04/15 06:14:39;;;;;;;29.47;27.30;;;;;;;;;;5114475;28;20435;-92
2022/04/15 06:17:08;;;;;;;29.80;27.60;;;;;;;;;;5114339;28;20472;-92
2022/04/15 06:19:35;;;;;;;30.17;28.07;;;;;;;;;;5114560;28;20485;-91
2022/04/15 06:22:02;;;;;;;26.83;25.03;;;;;;;;;;5114389;28;20415;-92
2022/04/15 06:24:30;;;;;;;27.43;25.63;;;;;;;;;;5114653;28;20460;-91
2022/04/15 06:26:57;;;;;;;27.50;25.73;;;;;;;;;;5114743;28;20403;-92
2022/04/15 06:29:25;;;;;;;26.00;24.30;;;;;;;;;;5114600;28;20411;-92
2022/04/15 06:31:52;;;;;;;26.97;25.07;;;;;;;;;;5114628;28;20441;-92
2022/04/15 06:34:21;;;;;;;27.00;25.03;;;;;;;;;;5114548;28;20885;-92
2022/04/15 06:36:49;;;;;;;26.40;24.70;;;;;;;;;;5114310;28;20908;-93
2022/04/15 06:39:16;;;;;;;26.20;24.40;;;;;;;;;;5113803;28;20483;-93
2022/04/15 06:41:44;;;;;;;25.67;23.77;;;;;;;;;;5114534;28;20415;-93
2022/04/15 06:44:12;;;;;;;26.10;24.17;;;;;;;;;;5113376;28;20420;-93
2022/04/15 06:46:39;;;;;;;25.83;23.93;;;;;;;;;;5114551;28;20407;-91
2022/04/15 06:49:08;;;;;;;26.73;24.90;;;;;;;;;;5114689;28;20433;-92
2022/04/15 06:51:37;;;;;;;25.97;24.07;;;;;;;;;;5114605;28;20433;-93
2022/04/15 06:54:05;;;;;;;24.93;23.33;;;;;;;;;;5113593;28;20432;-93
2022/04/15 06:56:32;;;;;;;24.53;23.03;;;;;;;;;;5114529;28;20433;-93
2022/04/15 06:58:59;;;;;;;27.13;25.23;;;;;;;;;;5114192;28;20563;-93
2022/04/15 07:01:29;;;;;;;26.17;24.47;;;;;;;;;;5114630;28;20436;-93
2022/04/15 07:03:56;;;;;;;26.97;25.03;;;;;;;;;;5114324;28;20472;-93
2022/04/15 07:06:23;;;;;;;26.17;24.33;;;;;;;;;;5114496;28;20432;-92
2022/04/15 07:08:52;;;;;;;25.07;23.50;;;;;;;;;;5114299;28;20422;-93
2022/04/15 07:11:20;;;;;;;26.57;24.67;;;;;;;;;;5114238;28;20407;-93
2022/04/15 07:13:47;;;;;;;25.70;23.90;;;;;;;;;;5114216;28;20463;-93
2022/04/15 07:16:15;;;;;;;25.23;23.50;;;;;;;;;;5114144;28;20495;-93
2022/04/15 07:18:42;;;;;;;26.00;24.30;;;;;;;;;;5114218;28;20481;-93
2022/04/15 07:21:11;;;;;;;25.40;23.70;;;;;;;;;;5114262;28;20426;-94
2022/04/15 07:23:38;;;;;;;26.23;24.47;;;;;;;;;;5114235;28;20780;-91
2022/04/15 07:26:07;;;;;;;27.70;25.63;;;;;;;;;;5116173;28;20451;-92
2022/04/15 07:28:34;;;;;;;26.17;24.57;;;;;;;;;;5117960;28;20451;-91
2022/04/15 07:31:02;;;;;;;25.97;24.07;;;;;;;;;;5117692;28;20429;-92
2022/04/15 07:33:29;;;;;;;26.33;24.50;;;;;;;;;;5117631;28;20436;-88
2022/04/15 07:35:57;;;;;;;25.90;24.23;;;;;;;;;;5116198;28;20457;-91
2022/04/15 07:38:24;;;;;;;27.13;25.23;;;;;;;;;;5117773;27;20437;-88
2022/04/15 07:40:51;;;;;;;26.80;25.03;;;;;;;;;;5117570;28;20434;-88
2022/04/15 07:43:20;;;;;;;25.27;23.57;;;;;;;;;;5117484;28;20407;-91
2022/04/15 07:45:47;;;;;;;25.77;24.00;;;;;;;;;;5118169;28;20441;-91
2022/04/15 07:48:15;;;;;;;24.50;23.00;;;;;;;;;;5117306;28;20444;-89
2022/04/15 07:50:42;;;;;;;24.67;23.10;;;;;;;;;;5117921;28;20416;-91
2022/04/15 07:53:09;;;;;;;25.53;23.73;;;;;;;;;;5117917;28;20429;-91
2022/04/15 07:55:37;;;;;;;24.30;22.60;;;;;;;;;;5117235;28;20403;-92
2022/04/15 07:58:04;;;;;;;25.47;23.87;;;;;;;;;;5117144;28;20899;-94
2022/04/15 08:00:34;;;;;;;24.50;22.90;;;;;;;;;;5117370;28;20525;-93
2022/04/15 08:03:01;;;;;;;25.20;23.63;;;;;;;;;;5116836;28;20407;-92
2022/04/15 08:05:29;;;;;;;24.30;22.50;;;;;;;;;;5117123;28;20404;-90
2022/04/15 08:07:56;;;;;;;25.00;23.40;;;;;;;;;;5117487;28;20430;-91
2022/04/15 08:10:23;;;;;;;25.50;23.50;;;;;;;;;;5117212;28;20436;-91
2022/04/15 08:12:51;;;;;;;25.90;24.03;;;;;;;;;;5117015;28;20499;-90
2022/04/15 08:15:18;;;;;;;23.53;22.03;;;;;;;;;;5116821;28;20454;-91
2022/04/15 08:17:47;;;;;;;24.10;22.70;;;;;;;;;;5117016;28;20436;-91
2022/04/15 08:20:15;;;;;;;24.43;22.73;;;;;;;;;;5116870;28;20507;-91
2022/04/15 08:22:42;;;;;;;24.60;23.00;;;;;;;;;;5116821;28;20412;-91
2022/04/15 08:25:10;;;;;;;24.67;22.97;;;;;;;;;;5115586;28;20525;-88
2022/04/15 08:27:37;;;;;;;23.93;22.33;;;;;;;;;;5116377;28;20418;-89
2022/04/15 08:30:05;;;;;;;24.50;22.90;;;;;;;;;;5116874;28;20418;-90
2022/04/15 08:32:34;;;;;;;24.23;22.73;;;;;;;;;;5116349;28;20433;-88
2022/04/15 08:35:03;;;;;;;25.73;23.83;;;;;;;;;;5116419;28;20400;-85
2022/04/15 08:37:30;;;;;;;24.70;23.00;;;;;;;;;;5116212;28;20771;-89
2022/04/15 08:39:58;;;;;;;24.17;22.67;;;;;;;;;;5116771;28;20488;-91
2022/04/15 08:42:25;;;;;;;23.87;22.37;;;;;;;;;;5115700;28;20452;-96
2022/04/15 08:44:53;;;;;;;24.97;23.27;;;;;;;;;;5115936;28;20441;-95
2022/04/15 08:47:20;;;;;;;24.40;22.90;;;;;;;;;;5116310;28;20944;-94
2022/04/15 08:49:48;;;;;;;24.70;23.00;;;;;;;;;;5116777;28;20441;-94
2022/04/15 08:52:18;;;;;;;24.57;23.07;;;;;;;;;;5115671;28;20493;-94
2022/04/15 08:54:46;;;;;;;23.40;22.03;;;;;;;;;;5114767;28;20502;-93
2022/04/15 08:57:14;;;;;;;24.57;23.03;;;;;;;;;;5116011;28;20431;-93
2022/04/15 08:59:41;;;;;;;24.23;22.83;;;;;;;;;;5115848;28;21011;-93
2022/04/15 09:02:09;;;;;;;24.43;22.93;;;;;;;;;;5115034;28;20436;-94
2022/04/15 09:04:36;;;;;;;23.23;21.83;;;;;;;;;;5116066;28;20463;-93
2022/04/15 09:07:05;;;;;;;25.17;23.53;;;;;;;;;;5115609;28;20479;-94
2022/04/15 09:09:34;;;;;;;24.50;22.87;;;;;;;;;;5115822;28;20434;-93
2022/04/15 09:12:03;;;;;;;23.50;22.10;;;;;;;;;;5115762;28;20539;-91
2022/04/15 09:14:31;;;;;;;23.33;22.00;;;;;;;;;;5115634;28;20476;-91
2022/04/15 09:16:58;;;;;;;23.27;21.80;;;;;;;;;;5115504;28;20459;-91
2022/04/15 09:19:25;;;;;;;21.43;20.30;;;;;;;;;;5115627;28;20458;-90
2022/04/15 09:21:53;;;;;;;22.00;20.80;;;;;;;;;;5115612;28;20423;-91
2022/04/15 09:24:27;;;;;;;22.27;20.97;;;;;;;;;;5115240;28;20993;-90
2022/04/15 09:26:56;;;;;;;23.10;21.70;;;;;;;;;;5115393;28;20489;-90
2022/04/15 09:29:26;;;;;;;23.13;21.70;;;;;;;;;;5115208;28;20448;-90
2022/04/15 09:31:56;;;;;;;21.97;20.77;;;;;;;;;;5115777;28;20407;-86
2022/04/15 09:34:23;;;;;;;21.53;20.33;;;;;;;;;;5115351;28;20465;-89
2022/04/15 09:36:51;;;;;;;22.50;21.30;;;;;;;;;;5115191;28;20433;-90
2022/04/15 09:39:18;;;;;;;22.40;21.20;;;;;;;;;;5115079;28;20421;-91
2022/04/15 09:41:50;;;;;;;22.13;20.93;;;;;;;;;;5115778;28;20465;-90
2022/04/15 09:44:21;;;;;;;22.10;20.90;;;;;;;;;;5113942;28;20407;-88
2022/04/15 09:46:49;;;;;;;23.87;22.50;;;;;;;;;;5115144;28;20443;-90
2022/04/15 09:49:17;;;;;;;22.53;21.33;;;;;;;;;;5113182;28;20449;-90
2022/04/15 09:51:45;;;;;;;22.80;21.50;;;;;;;;;;5114946;28;20419;-90
2022/04/15 09:54:22;;;;;;;22.40;21.10;;;;;;;;;;5115123;28;20439;-91
2022/04/15 09:56:50;;;;;;;23.40;22.10;;;;;;;;;;5116095;28;20912;-91
2022/04/15 09:59:18;;;;;;;22.90;21.53;;;;;;;;;;5114422;28;20415;-90
2022/04/15 10:01:47;;;;;;;22.03;20.87;;;;;;;;;;5115154;28;20472;-91
2022/04/15 10:04:14;;;;;;;22.77;21.47;;;;;;;;;;5115100;28;20400;-90
2022/04/15 10:06:43;;;;;;;21.50;20.30;;;;;;;;;;5114756;28;20436;-91
2022/04/15 10:09:13;;;;;;;22.80;21.60;;;;;;;;;;5114727;28;20430;-91
2022/04/15 10:11:42;;;;;;;22.50;21.20;;;;;;;;;;5114694;28;20468;-91
2022/04/15 10:14:11;;;;;;;21.43;20.13;;;;;;;;;;5114075;28;20539;-89
2022/04/15 10:16:39;;;;;;;21.60;20.40;;;;;;;;;;5115007;28;20458;-88
2022/04/15 10:19:08;;;;;;;21.23;20.13;;;;;;;;;;5114700;28;20450;-90
2022/04/15 10:21:38;;;;;;;22.33;21.23;;;;;;;;;;5114348;28;20458;-86
2022/04/15 10:24:08;;;;;;;22.63;21.33;;;;;;;;;;5114664;28;20480;-90
2022/04/15 10:26:36;;;;;;;21.53;20.43;;;;;;;;;;5115320;28;20468;-91
2022/04/15 10:29:05;;;;;;;22.03;20.83;;;;;;;;;;5115768;28;20489;-84
2022/04/15 10:31:39;;;;;;;22.23;21.07;;;;;;;;;;5114421;28;20786;-93
2022/04/15 10:34:12;;;;;;;22.63;21.43;;;;;;;;;;5113824;28;20928;-95
2022/04/15 10:36:40;;;;;;;22.60;21.40;;;;;;;;;;5114842;28;20440;-94
2022/04/15 10:39:21;;;;;;;23.30;22.07;;;;;;;;;;5115743;28;20411;-93
2022/04/15 10:41:57;;;;;;;22.80;21.60;;;;;;;;;;5114213;28;20514;-85
2022/04/15 10:44:28;;;;;;;22.10;20.90;;;;;;;;;;5113504;28;20790;-86
2022/04/15 10:46:59;;;;;;;22.33;21.13;;;;;;;;;;5114083;28;20855;-86
2022/04/15 10:49:30;;;;;;;22.80;21.50;;;;;;;;;;5114478;28;20626;-89
2022/04/15 10:51:59;;;;;;;23.30;22.00;;;;;;;;;;5114515;28;20876;-89
2022/04/15 10:54:34;;;;;;;21.87;20.67;;;;;;;;;;5114187;28;20532;-88
2022/04/15 10:57:02;;;;;;;22.83;21.43;;;;;;;;;;5114233;28;20975;-89
2022/04/15 11:02:18;;;;;;;21.60;20.47;;;;;;;;;;5118037;28;20391;-90
2022/04/15 11:04:51;;;;;;;21.70;20.50;;;;;;;;;;5118157;28;20403;-91
2022/04/15 11:07:26;;;;;;;20.80;19.67;;;;;;;;;;5118881;28;20415;-89
2022/04/15 11:09:54;;;;;;;22.37;21.13;;;;;;;;;;5118345;28;20446;-91
2022/04/15 11:12:31;;;;;;;21.40;20.30;;;;;;;;;;5118324;28;20814;-87
2022/04/15 11:14:58;;;;;;;21.60;20.40;;;;;;;;;;5118295;28;20402;-88
2022/04/15 11:17:39;;;;;;;21.40;20.30;;;;;;;;;;5117928;28;20769;-87
2022/04/15 11:20:10;;;;;;;22.03;20.80;;;;;;;;;;5117313;28;20542;-88
2022/04/15 11:22:40;;;;;;;22.67;21.37;;;;;;;;;;5117893;28;20410;-88
2022/04/15 11:25:10;;;;;;;22.30;21.10;;;;;;;;;;5117644;28;20472;-86
2022/04/15 11:27:39;;;;;;;23.33;22.13;;;;;;;;;;5117802;28;20468;-90
2022/04/15 11:30:11;;;;;;;23.67;22.33;;;;;;;;;;5117998;28;20468;-92
2022/04/15 11:32:46;;;;;;;23.70;22.50;;;;;;;;;;5117800;28;20429;-88
2022/04/15 11:35:26;;;;;;;24.27;22.90;;;;;;;;;;5117380;28;20910;-88
2022/04/15 11:37:56;;;;;;;23.67;22.30;;;;;;;;;;5117466;28;20432;-89
2022/04/15 11:40:24;;;;;;;24.33;22.93;;;;;;;;;;5117219;28;20443;-88
2022/04/15 11:42:57;;;;;;;24.77;23.10;;;;;;;;;;5117517;28;20408;-89
2022/04/15 11:45:32;;;;;;;24.23;22.77;;;;;;;;;;5117585;28;20478;-88
2022/04/15 11:48:14;;;;;;;22.80;21.60;;;;;;;;;;5117494;28;20444;-89
2022/04/15 11:50:43;;;;;;;23.30;22.03;;;;;;;;;;5117200;28;20518;-89
2022/04/15 11:53:10;;;;;;;23.63;22.33;;;;;;;;;;5116734;28;20457;-88
2022/04/15 11:55:48;;;;;;;23.03;21.70;;;;;;;;;;5116351;28;20423;-89
2022/04/15 11:58:15;;;;;;;22.87;21.63;;;;;;;;;;5117257;28;20787;-89
2022/04/15 12:00:43;;;;;;;25.20;23.60;;;;;;;;;;5116796;28;20488;-89
2022/04/15 12:03:13;;;;;;;23.10;21.80;;;;;;;;;;5116932;28;20435;-89
2022/04/15 12:05:42;;;;;;;24.20;22.80;;;;;;;;;;5117174;28;20437;-90
2022/04/15 12:08:10;;;;;;;25.00;23.60;;;;;;;;;;5116876;28;20411;-90
2022/04/15 12:10:39;;;;;;;24.10;22.80;;;;;;;;;;5117154;27;20443;-88
2022/04/15 12:13:07;;;;;;;23.03;21.73;;;;;;;;;;5116554;28;20481;-88
2022/04/15 12:15:34;;;;;;;24.10;22.70;;;;;;;;;;5115470;28;20447;-86
2022/04/15 12:18:02;;;;;;;24.40;23.00;;;;;;;;;;5117123;28;20741;-86
2022/04/15 12:20:30;;;;;;;25.33;23.73;;;;;;;;;;5116840;28;20447;-85
2022/04/15 12:22:59;;;;;;;25.10;23.40;;;;;;;;;;5115614;28;20447;-85
2022/04/15 12:26:05;;;;;;;31.37;28.50;;;;;;;;;;5116018;28;20898;-85
2022/04/15 12:30:56;;;;;;;24.00;22.60;;;;;;;;;;5116260;28;20398;-85
2022/04/15 12:33:24;;;;;;;24.50;23.10;;;;;;;;;;5116469;28;20412;-85
2022/04/15 12:36:01;;;;;;;23.83;22.37;;;;;;;;;;5116477;28;20440;-85
2022/04/15 12:38:31;;;;;;;24.63;23.10;;;;;;;;;;5116400;28;20442;-87
2022/04/15 12:41:02;;;;;;;23.63;22.33;;;;;;;;;;5116110;28;20854;-86
2022/04/15 12:43:30;;;;;;;22.80;21.50;;;;;;;;;;5115912;28;20889;-88
2022/04/15 12:45:58;;;;;;;25.30;23.60;;;;;;;;;;5115721;28;20503;-85
2022/04/15 12:48:25;;;;;;;23.30;21.90;;;;;;;;;;5115864;28;20412;-86
2022/04/15 12:50:58;;;;;;;29.60;27.17;;;;;;;;;;5115451;28;20768;-88
2022/04/15 12:53:26;;;;;;;24.93;23.20;;;;;;;;;;5116013;28;20429;-87
2022/04/15 12:55:56;;;;;;;23.43;22.03;;;;;;;;;;5116399;28;20442;-87
2022/04/15 12:58:24;;;;;;;23.67;22.27;;;;;;;;;;5116049;28;20947;-87
2022/04/15 13:00:53;;;;;;;24.13;22.73;;;;;;;;;;5116225;28;20446;-88
2022/04/15 13:03:21;;;;;;;24.47;22.93;;;;;;;;;;5115981;28;20524;-88
2022/04/15 13:05:49;;;;;;;24.07;22.57;;;;;;;;;;5115941;28;20412;-88
2022/04/15 13:08:17;;;;;;;27.27;25.10;;;;;;;;;;5115671;27;20451;-87
2022/04/15 13:10:45;;;;;;;26.10;24.20;;;;;;;;;;5115362;28;20874;-90
2022/04/15 13:13:14;;;;;;;24.50;23.10;;;;;;;;;;5115639;28;20415;-91
2022/04/15 13:15:42;;;;;;;22.70;21.33;;;;;;;;;;5116021;28;20834;-89
2022/04/15 13:18:10;;;;;;;23.23;21.83;;;;;;;;;;5115449;28;20468;-93
2022/04/15 13:20:37;;;;;;;22.70;21.30;;;;;;;;;;5115578;28;20468;-92
2022/04/15 13:23:04;;;;;;;22.33;21.13;;;;;;;;;;5113484;28;20513;-91
2022/04/15 13:25:32;;;;;;;23.10;21.80;;;;;;;;;;5115814;28;20433;-93
2022/04/15 13:27:59;;;;;;;24.30;22.80;;;;;;;;;;5116278;28;20404;-96
2022/04/15 13:30:28;;;;;;;24.43;23.10;;;;;;;;;;5115526;28;20407;-94
2022/04/15 13:33:02;;;;;;;24.00;22.50;;;;;;;;;;5116068;28;20497;-94
2022/04/15 13:35:29;;;;;;;23.73;22.33;;;;;;;;;;5115341;28;20407;-95
2022/04/15 13:37:56;;;;;;;23.33;22.03;;;;;;;;;;5115429;28;20436;-95
2022/04/15 13:40:24;;;;;;;22.70;21.40;;;;;;;;;;5115577;28;20436;-89
2022/04/15 13:42:51;;;;;;;23.83;22.53;;;;;;;;;;5114742;28;20426;-88
2022/04/15 13:45:19;;;;;;;22.50;21.20;;;;;;;;;;5115151;28;20433;-93
2022/04/15 13:47:48;;;;;;;24.10;22.43;;;;;;;;;;5114178;28;20468;-94
2022/04/15 13:50:15;;;;;;;23.20;21.70;;;;;;;;;;5115326;28;20430;-92
2022/04/15 13:58:13;;;;;;;24.47;22.97;;;;;;;;;;5115018;28;20419;-91
2022/04/15 14:00:40;;;;;;;22.60;21.30;;;;;;;;;;5114648;28;20969;-92
2022/04/15 14:03:09;;;;;;;23.10;21.70;;;;;;;;;;5114696;28;20435;-90
2022/04/15 14:05:36;;;;;;;23.77;22.37;;;;;;;;;;5113627;28;20440;-90
2022/04/15 14:08:05;;;;;;;23.53;22.13;;;;;;;;;;5114949;28;20407;-90
2022/04/15 14:10:34;;;;;;;23.43;22.10;;;;;;;;;;5114606;28;20496;-90
2022/04/15 14:13:02;;;;;;;25.03;23.63;;;;;;;;;;5114627;28;20441;-89
2022/04/15 14:15:30;;;;;;;22.60;21.30;;;;;;;;;;5114601;28;20463;-90
2022/04/15 14:17:59;;;;;;;24.63;23.23;;;;;;;;;;5113721;28;20456;-90
2022/04/15 14:20:29;;;;;;;23.37;21.97;;;;;;;;;;5115091;28;20403;-89
2022/04/15 14:22:56;;;;;;;23.07;21.70;;;;;;;;;;5113372;28;20812;-90
2022/04/15 14:25:24;;;;;;;23.30;22.00;;;;;;;;;;5115333;28;20434;-91
2022/04/15 14:27:52;;;;;;;23.80;22.40;;;;;;;;;;5115558;28;20422;-90
2022/04/15 14:30:19;;;;;;;23.00;21.70;;;;;;;;;;5115114;28;20440;-90
2022/04/15 14:32:47;;;;;;;23.90;22.60;;;;;;;;;;5115426;28;20491;-91